createdAt,value
2018-02-05T00:02:14.767Z,91.31
2018-02-05T00:04:43.829Z,91.36
2018-02-05T00:07:12.878Z,91.36
2018-02-05T00:09:41.925Z,91.37
2018-02-05T00:12:10.985Z,91.68
2018-02-05T00:14:40.029Z,91.35
2018-02-05T00:17:09.091Z,91.86
2018-02-05T00:19:43.568Z,91.07
2018-02-05T00:22:15.516Z,91.97
2018-02-05T00:24:44.606Z,92.20
2018-02-05T00:27:13.637Z,91.87
2018-02-05T00:29:42.685Z,92.27
2018-02-05T00:32:11.737Z,92.26
2018-02-05T00:34:40.814Z,91.35
2018-02-05T00:37:09.861Z,91.54
2018-02-05T00:39:38.921Z,91.57
2018-02-05T00:42:07.985Z,92.12
2018-02-05T00:44:37.034Z,92.18
2018-02-05T00:47:06.074Z,92.29
2018-02-05T00:49:35.129Z,91.58
2018-02-05T00:52:04.181Z,92.67
2018-02-05T00:54:33.353Z,92.98
2018-02-05T00:57:02.369Z,92.78
2018-02-05T00:59:31.417Z,93.01
2018-02-05T01:02:07.154Z,93.56
2018-02-05T01:04:36.366Z,93.07
2018-02-05T01:07:05.432Z,93.15
2018-02-05T01:09:34.481Z,93.14
2018-02-05T01:12:03.532Z,92.01
2018-02-05T01:14:32.608Z,91.00
2018-02-05T01:17:01.659Z,91.15
2018-02-05T01:19:30.720Z,91.83
2018-02-05T01:21:59.822Z,91.83
2018-02-05T01:24:29.009Z,91.52
2018-02-05T01:26:58.054Z,92.08
2018-02-05T01:29:27.100Z,91.87
2018-02-05T01:31:56.157Z,91.45
2018-02-05T01:34:25.231Z,91.65
2018-02-05T01:36:54.294Z,92.68
2018-02-05T01:39:23.348Z,92.26
2018-02-05T01:41:52.469Z,91.84
2018-02-05T01:44:21.586Z,93.17
2018-02-05T01:46:50.641Z,93.60
2018-02-05T01:49:19.690Z,93.07
2018-02-05T01:51:48.754Z,93.45
2018-02-05T01:54:17.805Z,93.74
2018-02-05T01:59:22.676Z,94.29
2018-02-05T02:01:51.717Z,93.52
2018-02-05T02:04:20.838Z,93.58
2018-02-05T02:06:49.925Z,93.15
2018-02-05T02:09:18.969Z,93.53
2018-02-05T02:11:48.068Z,93.50
2018-02-05T02:14:17.125Z,93.07
2018-02-05T02:16:46.171Z,93.31
2018-02-05T02:19:15.212Z,93.32
2018-02-05T02:21:44.270Z,93.91
2018-02-05T02:24:13.329Z,93.73
2018-02-05T02:26:42.427Z,93.32
2018-02-05T02:29:11.454Z,93.25
2018-02-05T02:31:40.490Z,92.90
2018-02-05T02:34:09.549Z,93.07
2018-02-05T02:36:38.606Z,93.01
2018-02-05T02:39:07.652Z,92.89
2018-02-05T02:41:36.701Z,93.18
2018-02-05T02:44:05.781Z,93.00
2018-02-05T02:46:34.842Z,92.35
2018-02-05T02:49:03.890Z,91.98
2018-02-05T02:51:33.018Z,91.30
2018-02-05T02:54:02.063Z,91.23
2018-02-05T02:56:31.107Z,90.70
2018-02-05T02:59:00.161Z,90.91
2018-02-05T03:01:29.252Z,90.60
2018-02-05T03:03:58.298Z,90.99
2018-02-05T03:06:27.382Z,91.05
2018-02-05T03:08:56.417Z,90.72
2018-02-05T03:14:00.693Z,90.03
2018-02-05T03:16:29.744Z,90.38
2018-02-05T03:18:58.797Z,90.57
2018-02-05T03:21:47.211Z,90.36
2018-02-05T03:26:58.450Z,90.51
2018-02-05T03:29:28.439Z,91.08
2018-02-05T03:31:57.491Z,90.81
2018-02-05T03:34:28.538Z,90.58
2018-02-05T03:36:57.605Z,90.47
2018-02-05T03:39:26.671Z,89.94
2018-02-05T03:41:55.715Z,89.51
2018-02-05T03:44:32.313Z,89.36
2018-02-05T03:47:01.366Z,89.49
2018-02-05T03:52:13.553Z,89.14
2018-02-05T03:54:49.823Z,88.53
2018-02-05T03:57:18.879Z,88.84
2018-02-05T03:59:47.934Z,88.33
2018-02-05T04:02:24.360Z,88.81
2018-02-05T04:04:53.363Z,89.10
2018-02-05T04:07:24.322Z,89.00
2018-02-05T04:09:59.863Z,88.62
2018-02-05T04:12:46.944Z,88.93
2018-02-05T04:15:15.985Z,88.67
2018-02-05T04:17:45.952Z,89.41
2018-02-05T04:20:22.374Z,89.32
2018-02-05T04:22:51.403Z,88.99
2018-02-05T04:25:24.233Z,88.42
2018-02-05T04:27:53.293Z,88.25
2018-02-05T04:35:55.120Z,89.02
2018-02-05T04:38:27.897Z,89.45
2018-02-05T04:40:57.169Z,89.05
2018-02-05T04:43:26.209Z,89.08
2018-02-05T04:45:55.292Z,89.01
2018-02-05T04:48:24.348Z,88.73
2018-02-05T04:50:53.403Z,88.93
2018-02-05T04:53:24.353Z,88.51
2018-02-05T04:55:53.420Z,88.48
2018-02-05T04:58:24.397Z,88.35
2018-02-05T05:00:53.445Z,87.78
2018-02-05T05:03:26.201Z,88.74
2018-02-05T05:05:55.257Z,88.90
2018-02-05T05:08:24.298Z,88.04
2018-02-05T05:10:53.384Z,87.55
2018-02-05T05:13:22.478Z,87.83
2018-02-05T05:15:51.748Z,88.16
2018-02-05T05:18:46.803Z,88.61
2018-02-05T05:21:16.801Z,88.06
2018-02-05T05:23:46.735Z,88.01
2018-02-05T05:26:19.591Z,87.84
2018-02-05T05:28:48.644Z,87.58
2018-02-05T05:31:32.061Z,87.50
2018-02-05T05:34:05.335Z,87.70
2018-02-05T05:36:34.524Z,87.53
2018-02-05T05:39:03.591Z,86.59
2018-02-05T05:41:44.368Z,86.75
2018-02-05T05:44:13.422Z,86.71
2018-02-05T05:46:42.478Z,87.62
2018-02-05T05:49:11.533Z,88.17
2018-02-05T05:54:20.995Z,88.06
2018-02-05T05:57:02.214Z,88.46
2018-02-05T05:59:35.475Z,88.07
2018-02-05T06:02:04.531Z,88.21
2018-02-05T06:05:02.452Z,88.03
2018-02-05T06:07:32.472Z,88.73
2018-02-05T06:10:09.228Z,88.76
2018-02-05T06:15:14.415Z,88.68
2018-02-05T06:20:21.637Z,88.18
2018-02-05T06:23:09.406Z,88.13
2018-02-05T06:26:02.462Z,88.12
2018-02-05T06:31:13.217Z,87.33
2018-02-05T06:34:10.400Z,87.18
2018-02-05T06:36:39.486Z,87.80
2018-02-05T06:39:10.458Z,87.59
2018-02-05T06:44:23.334Z,88.27
2018-02-05T06:49:27.658Z,87.82
2018-02-05T06:58:13.076Z,87.62
2018-02-05T07:00:42.121Z,87.65
2018-02-05T07:03:11.176Z,87.34
2018-02-05T07:05:40.234Z,87.03
2018-02-05T07:08:09.334Z,87.21
2018-02-05T07:10:39.277Z,86.93
2018-02-05T07:13:08.352Z,86.92
2018-02-05T07:15:37.385Z,86.40
2018-02-05T07:18:06.453Z,86.99
2018-02-05T07:20:35.502Z,87.51
2018-02-05T07:23:04.547Z,87.37
2018-02-05T07:25:33.609Z,87.25
2018-02-05T07:30:38.868Z,86.50
2018-02-05T07:33:12.823Z,86.24
2018-02-05T07:35:47.091Z,86.16
2018-02-05T07:38:20.894Z,86.02
2018-02-05T07:40:53.920Z,85.56
2018-02-05T07:43:22.980Z,84.74
2018-02-05T07:45:52.034Z,84.67
2018-02-05T07:48:21.086Z,83.33
2018-02-05T07:50:50.141Z,83.00
2018-02-05T07:53:19.188Z,81.84
2018-02-05T07:55:48.239Z,83.04
2018-02-05T07:58:19.776Z,81.32
2018-02-05T08:00:48.822Z,82.52
2018-02-05T08:03:17.845Z,82.71
2018-02-05T08:05:46.913Z,81.77
2018-02-05T08:08:15.958Z,82.98
2018-02-05T08:10:45.012Z,83.19
2018-02-05T08:13:14.057Z,83.03
2018-02-05T08:15:43.119Z,81.29
2018-02-05T08:18:12.186Z,81.47
2018-02-05T08:20:41.225Z,80.19
2018-02-05T08:23:10.275Z,79.73
2018-02-05T08:25:39.356Z,79.94
2018-02-05T08:28:08.383Z,79.66
2018-02-05T08:30:37.446Z,81.21
2018-02-05T08:33:06.493Z,81.01
2018-02-05T08:35:35.551Z,80.34
2018-02-05T08:38:04.907Z,80.91
2018-02-05T08:40:34.018Z,81.43
2018-02-05T08:43:08.465Z,81.04
2018-02-05T08:48:14.421Z,81.05
2018-02-05T08:50:43.486Z,81.35
2018-02-05T08:55:47.785Z,77.17
2018-02-05T08:58:16.833Z,76.66
2018-02-05T09:00:45.881Z,75.03
2018-02-05T09:03:14.928Z,73.68
2018-02-05T09:05:43.961Z,75.23
2018-02-05T09:10:48.209Z,75.57
2018-02-05T09:13:17.281Z,76.08
2018-02-05T09:15:46.346Z,71.92
2018-02-05T09:18:15.433Z,74.15
2018-02-05T09:20:44.461Z,73.72
2018-02-05T09:23:13.513Z,74.29
2018-02-05T09:25:42.628Z,76.56
2018-02-05T09:28:11.683Z,75.45
2018-02-05T09:30:40.714Z,76.43
2018-02-05T09:33:09.778Z,76.57
2018-02-05T09:35:38.841Z,75.65
2018-02-05T09:38:07.881Z,74.93
2018-02-05T09:40:36.924Z,74.42
2018-02-05T09:43:06.719Z,72.38
2018-02-05T09:45:35.806Z,73.09
2018-02-05T09:48:04.856Z,74.81
2018-02-05T09:50:33.898Z,76.17
2018-02-05T09:53:02.957Z,74.23
2018-02-05T09:55:32.057Z,74.75
2018-02-05T09:58:01.090Z,73.91
2018-02-05T10:00:30.138Z,75.70
2018-02-05T10:02:59.179Z,74.33
2018-02-05T10:05:28.240Z,74.41
2018-02-05T10:07:57.794Z,74.84
2018-02-05T10:10:26.845Z,74.83
2018-02-05T10:12:56.874Z,73.52
2018-02-05T10:15:25.916Z,70.70
2018-02-05T10:20:30.180Z,67.95
2018-02-05T10:22:59.216Z,69.93
2018-02-05T10:25:28.264Z,69.43
2018-02-05T10:27:57.690Z,64.15
2018-02-05T10:30:34.032Z,65.39
2018-02-05T10:33:03.051Z,64.83
2018-02-05T10:35:32.090Z,64.17
2018-02-05T10:40:36.383Z,63.34
2018-02-05T10:43:05.446Z,54.12
2018-02-05T10:45:34.469Z,55.79
2018-02-05T10:48:03.534Z,61.64
2018-02-05T10:50:32.849Z,55.13
2018-02-05T10:53:01.857Z,60.87
2018-02-05T10:55:30.920Z,64.11
2018-02-05T10:57:59.941Z,68.13
2018-02-05T11:00:28.988Z,66.44
2018-02-05T11:05:33.232Z,67.66
2018-02-05T11:08:02.316Z,65.49
2018-02-05T11:10:31.338Z,64.56
2018-02-05T11:13:00.372Z,64.05
2018-02-05T11:15:29.426Z,59.25
2018-02-05T11:20:33.663Z,49.17
2018-02-05T11:23:05.201Z,55.00
2018-02-05T11:25:34.993Z,61.90
2018-02-05T11:28:04.046Z,65.95
2018-02-05T11:30:33.122Z,68.51
2018-02-05T11:33:06.750Z,67.17
2018-02-05T11:35:35.769Z,63.39
2018-02-05T11:38:04.813Z,63.75
2018-02-05T11:40:33.982Z,64.59
2018-02-05T11:43:03.021Z,57.35
2018-02-05T11:45:32.064Z,51.25
2018-02-05T11:48:01.119Z,52.29
2018-02-05T11:50:30.179Z,50.19
2018-02-05T11:52:59.221Z,54.00
2018-02-05T11:55:28.290Z,53.72
2018-02-05T11:57:57.329Z,50.24
2018-02-05T12:00:27.350Z,50.85
2018-02-05T12:02:56.405Z,50.55
2018-02-05T12:05:26.736Z,46.22
2018-02-05T12:07:55.782Z,44.93
2018-02-05T12:13:00.103Z,46.69
2018-02-05T12:18:13.164Z,53.86
2018-02-05T12:20:42.215Z,58.07
2018-02-05T12:25:46.468Z,46.73
2018-02-05T12:30:50.701Z,51.10
2018-02-05T12:35:54.935Z,51.97
2018-02-05T12:38:25.097Z,51.61
2018-02-05T12:40:54.105Z,50.94
2018-02-05T12:43:23.141Z,51.21
2018-02-05T12:45:52.212Z,52.23
2018-02-05T12:48:21.261Z,50.71
2018-02-05T12:50:50.321Z,51.14
2018-02-05T12:53:19.363Z,50.61
2018-02-05T12:55:48.427Z,54.71
2018-02-05T12:58:17.474Z,55.85
2018-02-05T13:03:55.765Z,55.19
2018-02-05T13:06:41.884Z,56.37
2018-02-05T13:09:10.949Z,59.47
2018-02-05T13:11:39.991Z,59.27
2018-02-05T13:14:09.064Z,60.78
2018-02-05T13:16:38.113Z,61.25
2018-02-05T13:19:12.636Z,59.65
2018-02-05T13:21:41.665Z,56.94
2018-02-05T13:24:10.739Z,58.12
2018-02-05T13:26:39.786Z,57.93
2018-02-05T13:31:44.181Z,54.99
2018-02-05T13:34:13.229Z,50.22
2018-02-05T13:36:42.285Z,47.02
2018-02-05T13:39:11.328Z,48.26
2018-02-05T13:41:40.368Z,53.27
2018-02-05T13:44:09.471Z,52.52
2018-02-05T13:46:38.489Z,55.25
2018-02-05T13:49:07.566Z,55.11
2018-02-05T13:51:36.577Z,52.68
2018-02-05T13:54:05.626Z,54.20
2018-02-05T13:56:34.665Z,52.91
2018-02-05T13:59:03.709Z,52.77
2018-02-05T14:01:32.741Z,54.67
2018-02-05T14:04:01.781Z,57.54
2018-02-05T14:06:30.839Z,57.11
2018-02-05T14:08:59.883Z,59.38
2018-02-05T14:11:28.927Z,57.76
2018-02-05T14:13:57.958Z,55.11
2018-02-05T14:16:27.430Z,55.13
2018-02-05T14:21:54.632Z,57.45
2018-02-05T14:24:23.914Z,59.85
2018-02-05T14:29:29.530Z,64.99
2018-02-05T14:34:34.809Z,69.40
2018-02-05T14:37:03.857Z,70.50
2018-02-05T14:39:33.893Z,70.49
2018-02-05T14:42:08.858Z,67.14
2018-02-05T14:44:37.869Z,68.05
2018-02-05T14:47:06.913Z,66.42
2018-02-05T14:49:36.001Z,64.21
2018-02-05T14:52:05.005Z,65.89
2018-02-05T14:54:37.224Z,65.67
2018-02-05T14:59:48.845Z,68.61
2018-02-05T15:02:17.872Z,70.83
2018-02-05T15:04:46.920Z,74.78
2018-02-05T15:07:15.968Z,74.53
2018-02-05T15:09:45.012Z,72.66
2018-02-05T15:12:14.090Z,74.36
2018-02-05T15:14:43.137Z,74.47
2018-02-05T15:17:12.186Z,73.20
2018-02-05T15:19:41.226Z,72.89
2018-02-05T15:22:10.467Z,74.19
2018-02-05T15:24:39.489Z,74.35
2018-02-05T15:29:43.735Z,74.03
2018-02-05T15:32:14.989Z,73.83
2018-02-05T15:34:48.223Z,74.80
2018-02-05T15:37:17.477Z,75.99
2018-02-05T15:39:50.519Z,74.41
2018-02-05T15:42:19.557Z,74.91
2018-02-05T15:44:49.613Z,74.80
2018-02-05T15:47:18.658Z,74.98
2018-02-05T15:49:47.742Z,74.50
2018-02-05T15:54:52.115Z,74.35
2018-02-05T15:57:21.154Z,75.19
2018-02-05T15:59:50.201Z,76.68
2018-02-05T16:02:19.254Z,75.83
2018-02-05T16:04:48.301Z,75.75
2018-02-05T16:07:17.353Z,77.26
2018-02-05T16:09:46.393Z,76.53
2018-02-05T16:12:15.457Z,77.55
2018-02-05T16:14:44.524Z,79.10
2018-02-05T16:17:13.618Z,79.79
2018-02-05T16:19:42.661Z,79.29
2018-02-05T16:22:11.723Z,80.63
2018-02-05T16:24:40.765Z,79.95
2018-02-05T16:27:14.970Z,80.59
2018-02-05T16:29:45.011Z,80.23
2018-02-05T16:34:50.230Z,81.09
2018-02-05T16:37:19.318Z,81.07
2018-02-05T16:39:48.389Z,81.68
2018-02-05T16:42:17.445Z,81.41
2018-02-05T16:44:47.559Z,80.89
2018-02-05T16:47:16.605Z,80.60
2018-02-05T16:49:45.669Z,81.21
2018-02-05T16:52:14.732Z,81.17
2018-02-05T16:54:43.790Z,81.43
2018-02-05T16:57:12.834Z,81.14
2018-02-05T16:59:41.905Z,81.84
2018-02-05T17:02:10.961Z,81.72
2018-02-05T17:06:59.836Z,81.58
2018-02-05T17:09:33.794Z,80.97
2018-02-05T17:12:02.837Z,79.88
2018-02-05T17:14:31.886Z,81.01
2018-02-05T17:17:00.966Z,81.49
2018-02-05T17:19:30.036Z,81.63
2018-02-05T17:21:59.098Z,80.80
2018-02-05T17:24:28.154Z,80.95
2018-02-05T17:26:57.214Z,81.25
2018-02-05T17:29:26.300Z,81.70
2018-02-05T17:31:55.368Z,81.33
2018-02-05T17:34:24.410Z,81.90
2018-02-05T17:36:53.472Z,82.52
2018-02-05T17:39:22.526Z,81.13
2018-02-05T17:41:51.613Z,82.73
2018-02-05T17:44:20.634Z,82.97
2018-02-05T17:46:49.773Z,82.95
2018-02-05T17:49:18.882Z,83.93
2018-02-05T17:51:47.935Z,83.85
2018-02-05T17:54:16.992Z,82.80
2018-02-05T17:56:46.037Z,85.01
2018-02-05T17:59:15.103Z,84.88
2018-02-05T18:01:44.154Z,83.00
2018-02-05T18:04:13.208Z,83.44
2018-02-05T18:06:42.249Z,82.87
2018-02-05T18:09:11.334Z,83.93
2018-02-05T18:11:40.395Z,83.89
2018-02-05T18:14:09.466Z,83.76
2018-02-05T18:16:38.560Z,84.07
2018-02-05T18:19:07.614Z,83.94
2018-02-05T18:21:36.661Z,84.56
2018-02-05T18:24:05.721Z,83.81
2018-02-05T18:26:34.769Z,84.98
2018-02-05T18:29:03.826Z,85.04
2018-02-05T18:31:32.894Z,85.14
2018-02-05T18:34:01.965Z,84.78
2018-02-05T18:36:31.013Z,84.21
2018-02-05T18:39:00.074Z,83.32
2018-02-05T18:41:29.114Z,84.10
2018-02-05T18:43:58.175Z,84.31
2018-02-05T18:46:27.230Z,83.59
2018-02-05T18:48:56.295Z,84.81
2018-02-05T18:51:25.365Z,84.31
2018-02-05T18:53:54.401Z,85.13
2018-02-05T18:59:06.219Z,84.31
2018-02-05T19:01:35.284Z,84.43
2018-02-05T19:04:04.337Z,84.39
2018-02-05T19:06:33.386Z,85.13
2018-02-05T19:09:02.434Z,84.48
2018-02-05T19:11:31.529Z,84.28
2018-02-05T19:14:00.633Z,83.64
2018-02-05T19:16:29.693Z,82.66
2018-02-05T19:18:58.752Z,82.90
2018-02-05T19:21:27.805Z,81.61
2018-02-05T19:23:57.014Z,81.75
2018-02-05T19:26:26.069Z,82.34
2018-02-05T19:28:55.134Z,81.48
2018-02-05T19:31:24.194Z,81.37
2018-02-05T19:33:53.270Z,81.74
2018-02-05T19:36:22.357Z,81.38
2018-02-05T19:38:51.402Z,81.87
2018-02-05T19:41:20.463Z,81.30
2018-02-05T19:43:49.506Z,81.16
2018-02-05T19:46:18.565Z,81.17
2018-02-05T19:48:47.670Z,81.26
2018-02-05T19:51:16.737Z,81.09
2018-02-05T19:53:45.837Z,81.00
2018-02-05T19:56:21.363Z,82.07
2018-02-05T19:58:51.098Z,82.23
2018-02-05T20:01:20.443Z,82.79
2018-02-05T20:03:49.982Z,83.44
2018-02-05T20:06:19.148Z,83.89
2018-02-05T20:08:48.466Z,83.47
2018-02-05T20:11:17.597Z,82.94
2018-02-05T20:13:46.623Z,83.34
2018-02-05T20:16:15.687Z,83.95
2018-02-05T20:18:44.741Z,84.09
2018-02-05T20:21:13.797Z,83.33
2018-02-05T20:23:42.860Z,83.23
2018-02-05T20:26:11.924Z,82.58
2018-02-05T20:28:40.984Z,82.48
2018-02-05T20:31:10.084Z,82.54
2018-02-05T20:33:39.148Z,83.21
2018-02-05T20:36:08.203Z,82.33
2018-02-05T20:38:37.411Z,82.53
2018-02-05T20:41:06.481Z,82.63
2018-02-05T20:43:35.537Z,82.14
2018-02-05T20:46:04.600Z,81.92
2018-02-05T20:48:33.712Z,81.51
2018-02-05T20:51:02.724Z,80.93
2018-02-05T20:53:31.782Z,81.44
2018-02-05T20:56:00.834Z,81.80
2018-02-05T20:58:29.907Z,80.99
2018-02-05T21:00:58.963Z,81.10
2018-02-05T21:03:29.009Z,81.11
2018-02-05T21:05:58.191Z,80.44
2018-02-05T21:08:27.247Z,80.30
2018-02-05T21:10:56.337Z,80.08
2018-02-05T21:13:25.429Z,80.16
2018-02-05T21:15:54.478Z,80.21
2018-02-05T21:18:23.530Z,80.16
2018-02-05T21:20:52.605Z,79.72
2018-02-05T21:23:21.683Z,79.89
2018-02-05T21:25:51.303Z,80.20
2018-02-05T21:28:20.350Z,80.06
2018-02-05T21:30:49.442Z,79.88
2018-02-05T21:33:18.498Z,80.48
2018-02-05T21:38:24.348Z,79.55
2018-02-05T21:40:54.298Z,80.32
2018-02-05T21:43:23.362Z,79.95
2018-02-05T21:45:54.330Z,79.96
2018-02-05T21:48:23.378Z,80.16
2018-02-05T21:50:54.365Z,80.27
2018-02-05T21:53:23.439Z,79.99
2018-02-05T21:55:54.461Z,80.09
2018-02-05T21:58:24.449Z,80.32
2018-02-05T22:00:54.413Z,80.28
2018-02-05T22:03:23.463Z,79.79
2018-02-05T22:08:43.805Z,79.84
2018-02-05T22:11:12.862Z,80.48
2018-02-05T22:16:24.022Z,80.60
2018-02-05T22:18:54.026Z,80.10
2018-02-05T22:24:00.214Z,80.14
2018-02-05T22:26:29.261Z,80.37
2018-02-05T22:28:58.318Z,80.01
2018-02-05T22:31:28.110Z,79.89
2018-02-05T22:33:57.178Z,79.91
2018-02-05T22:36:26.230Z,80.13
2018-02-05T22:38:55.314Z,79.39
2018-02-05T22:41:25.418Z,80.33
2018-02-05T22:43:54.449Z,80.74
2018-02-05T22:46:23.596Z,80.48
2018-02-05T22:48:53.608Z,80.71
2018-02-05T22:51:27.888Z,81.03
2018-02-05T22:56:35.011Z,81.49
2018-02-05T22:59:10.351Z,81.33
2018-02-05T23:01:44.162Z,81.70
2018-02-05T23:04:31.267Z,81.59
2018-02-05T23:07:22.210Z,81.03
2018-02-05T23:09:52.342Z,81.56
2018-02-05T23:12:22.345Z,81.39
2018-02-05T23:14:52.498Z,81.49
2018-02-05T23:17:22.868Z,81.24
2018-02-05T23:22:30.066Z,81.86
2018-02-05T23:27:38.455Z,82.17
2018-02-05T23:30:09.897Z,81.89
2018-02-05T23:32:39.174Z,82.22
2018-02-05T23:35:08.224Z,82.19
2018-02-05T23:37:37.541Z,81.83
2018-02-05T23:40:06.610Z,81.49
2018-02-05T23:42:36.718Z,81.46
2018-02-05T23:47:41.018Z,81.37
2018-02-05T23:50:21.010Z,81.45
2018-02-05T23:55:29.324Z,81.81
2018-02-05T23:58:14.945Z,82.92
